Terminal Aerodrome Forecast
Issued by NWS

Home | Current Version | Previous Version | Text Only | Print | Product List | Glossary On
Versions: 1 2 3 4 5 6 7 8 9 10 11 12 13 14 15 16 17 18 19
000
FTUS41 KBOX 221728
TAFHYA
TAF
KHYA 221728Z 2218/2318 19008KT P6SM FEW250
     FM230200 22008KT P6SM BKN110
     FM231000 21010KT P6SM OVC003
     FM231300 21011KT P6SM SCT003 OVC025
     FM231500 21013KT P6SM BKN130=

USA.gov is the U.S. government's official web portal to all federal, state and local government web resources and services.